createdAt,value
2023-04-07T00:00:28.003Z,16.10
2023-04-07T00:02:55.065Z,16.00
2023-04-07T00:05:22.405Z,16.00
2023-04-07T00:07:56.551Z,16.00
2023-04-07T00:10:25.364Z,15.90
2023-04-07T00:12:52.624Z,16.00
2023-04-07T00:15:19.698Z,16.00
2023-04-07T00:17:46.629Z,16.10
2023-04-07T00:20:13.703Z,16.20
2023-04-07T00:22:40.731Z,16.20
2023-04-07T00:25:08.151Z,16.20
2023-04-07T00:27:35.254Z,16.20
2023-04-07T00:30:02.822Z,16.20
2023-04-07T00:32:29.724Z,16.30
2023-04-07T00:34:56.659Z,16.30
2023-04-07T00:37:25.619Z,16.30
2023-04-07T00:39:52.912Z,16.30
2023-04-07T00:42:20.298Z,16.30
2023-04-07T00:44:47.586Z,16.30
2023-04-07T00:47:15.532Z,16.20
2023-04-07T00:49:42.519Z,16.20
2023-04-07T00:52:11.533Z,16.20
2023-04-07T00:54:39.523Z,16.10
2023-04-07T00:57:07.187Z,16.10
2023-04-07T00:59:34.644Z,16.10
2023-04-07T01:02:17.133Z,16.10
2023-04-07T01:04:44.381Z,16.10
2023-04-07T01:07:39.704Z,16.10
2023-04-07T01:10:10.970Z,16.00
2023-04-07T01:12:54.560Z,16.10
2023-04-07T01:15:25.246Z,16.10
2023-04-07T01:18:06.441Z,16.10
2023-04-07T01:20:34.805Z,16.10
2023-04-07T01:23:07.782Z,16.00
2023-04-07T01:25:52.832Z,16.00
2023-04-07T01:28:37.838Z,16.00
2023-04-07T01:31:08.694Z,16.00
2023-04-07T01:33:36.688Z,15.90
2023-04-07T01:36:06.900Z,16.00
2023-04-07T01:38:34.752Z,16.00
2023-04-07T01:41:03.343Z,16.00
2023-04-07T01:43:31.667Z,15.90
2023-04-07T01:45:59.542Z,15.90
2023-04-07T01:48:26.996Z,15.90
2023-04-07T01:50:55.683Z,15.90
2023-04-07T01:53:23.719Z,15.80
2023-04-07T01:55:52.328Z,15.80
2023-04-07T01:58:19.277Z,15.70
2023-04-07T02:00:47.066Z,15.70
2023-04-07T02:03:21.625Z,15.60
2023-04-07T02:05:51.817Z,15.60
2023-04-07T02:08:21.603Z,15.60
2023-04-07T02:10:49.419Z,15.60
2023-04-07T02:13:20.331Z,15.60
2023-04-07T02:15:49.157Z,15.60
2023-04-07T02:18:18.759Z,15.70
2023-04-07T02:20:46.981Z,15.70
2023-04-07T02:23:13.914Z,15.70
2023-04-07T02:25:43.633Z,15.70
2023-04-07T02:28:10.578Z,15.70
2023-04-07T02:30:37.616Z,15.70
2023-04-07T02:33:04.596Z,15.70
2023-04-07T02:35:31.719Z,15.80
2023-04-07T02:37:58.655Z,15.70
2023-04-07T02:40:25.813Z,15.70
2023-04-07T02:42:52.655Z,15.70
2023-04-07T02:45:19.599Z,15.80
2023-04-07T02:47:46.675Z,15.80
2023-04-07T02:50:13.749Z,15.90
2023-04-07T02:52:41.100Z,15.90
2023-04-07T02:55:09.584Z,15.90
2023-04-07T02:57:36.633Z,15.90
2023-04-07T03:00:05.725Z,15.90
2023-04-07T03:02:33.002Z,15.90
2023-04-07T03:05:00.378Z,15.80
2023-04-07T03:07:27.327Z,15.80
2023-04-07T03:09:54.309Z,15.80
2023-04-07T03:12:21.318Z,15.80
2023-04-07T03:14:48.328Z,15.80
2023-04-07T03:17:15.510Z,15.80
2023-04-07T03:19:42.542Z,15.80
2023-04-07T03:22:09.409Z,15.80
2023-04-07T03:24:36.272Z,15.80
2023-04-07T03:27:03.657Z,15.80
2023-04-07T03:29:30.652Z,15.70
2023-04-07T03:31:57.649Z,15.70
2023-04-07T03:34:24.489Z,15.80
2023-04-07T03:36:51.375Z,15.70
2023-04-07T03:39:18.286Z,15.80
2023-04-07T03:41:45.425Z,15.70
2023-04-07T03:44:12.427Z,15.80
2023-04-07T03:46:39.358Z,15.70
2023-04-07T03:49:07.189Z,15.70
2023-04-07T03:51:34.260Z,15.70
2023-04-07T03:54:01.497Z,15.70
2023-04-07T03:56:29.055Z,15.70
2023-04-07T03:58:56.321Z,15.70
2023-04-07T04:01:23.295Z,15.70
2023-04-07T04:03:51.376Z,15.70
2023-04-07T04:06:18.552Z,15.70
2023-04-07T04:08:45.574Z,15.70
2023-04-07T04:11:12.554Z,15.70
2023-04-07T04:13:39.656Z,15.60
2023-04-07T04:16:07.141Z,15.60
2023-04-07T04:18:34.089Z,15.60
2023-04-07T04:21:01.602Z,15.60
2023-04-07T04:23:28.464Z,15.60
2023-04-07T04:25:55.335Z,15.70
2023-04-07T04:28:22.253Z,15.60
2023-04-07T04:30:49.141Z,15.60
2023-04-07T04:33:15.960Z,15.60
2023-04-07T04:35:42.841Z,15.60
2023-04-07T04:38:10.617Z,15.60
2023-04-07T04:40:37.570Z,15.60
2023-04-07T04:43:07.473Z,15.60
2023-04-07T04:45:34.475Z,15.50
2023-04-07T04:48:01.558Z,15.50
2023-04-07T04:50:28.500Z,15.50
2023-04-07T04:52:55.480Z,15.50
2023-04-07T04:55:22.390Z,15.50
2023-04-07T04:57:49.277Z,15.50
2023-04-07T05:00:16.415Z,15.50
2023-04-07T05:02:43.517Z,15.40
2023-04-07T05:05:10.626Z,15.40
2023-04-07T05:07:37.777Z,15.40
2023-04-07T05:10:05.058Z,15.40
2023-04-07T05:12:31.936Z,15.30
2023-04-07T05:14:58.815Z,15.30
2023-04-07T05:17:25.888Z,15.30
2023-04-07T05:19:52.862Z,15.30
2023-04-07T05:22:19.793Z,15.30
2023-04-07T05:24:46.756Z,15.30
2023-04-07T05:27:13.744Z,15.20
2023-04-07T05:29:40.697Z,15.20
2023-04-07T05:32:07.758Z,15.20
2023-04-07T05:34:34.734Z,15.20
2023-04-07T05:37:01.695Z,15.20
2023-04-07T05:39:28.531Z,15.20
2023-04-07T05:41:56.693Z,15.20
2023-04-07T05:44:23.714Z,15.20
2023-04-07T05:46:50.670Z,15.20
2023-04-07T05:49:20.024Z,15.20
2023-04-07T05:51:48.814Z,15.20
2023-04-07T05:54:16.562Z,15.20
2023-04-07T05:56:43.430Z,15.20
2023-04-07T05:59:10.741Z,15.30
2023-04-07T06:01:37.601Z,15.30
2023-04-07T06:04:04.701Z,15.40
2023-04-07T06:06:31.692Z,15.40
2023-04-07T06:08:58.612Z,15.40
2023-04-07T06:11:27.196Z,15.40
2023-04-07T06:13:54.262Z,15.40
2023-04-07T06:16:21.307Z,15.40
2023-04-07T06:18:48.298Z,15.50
2023-04-07T06:21:15.668Z,15.50
2023-04-07T06:23:42.689Z,15.60
2023-04-07T06:26:13.138Z,15.60
2023-04-07T06:28:40.480Z,15.60
2023-04-07T06:31:08.815Z,15.60
2023-04-07T06:33:36.151Z,15.70
2023-04-07T06:36:03.107Z,15.70
2023-04-07T06:38:30.071Z,15.60
2023-04-07T06:40:56.956Z,15.60
2023-04-07T06:43:23.962Z,15.70
2023-04-07T06:45:51.092Z,15.70
2023-04-07T06:48:17.986Z,15.80
2023-04-07T06:50:49.935Z,15.80
2023-04-07T06:53:16.949Z,15.80
2023-04-07T06:55:44.118Z,15.80
2023-04-07T06:58:11.292Z,15.80
2023-04-07T07:00:39.144Z,15.90
2023-04-07T07:03:06.578Z,15.80
2023-04-07T07:05:33.755Z,15.90
2023-04-07T07:08:00.986Z,15.90
2023-04-07T07:10:28.014Z,15.90
2023-04-07T07:12:54.969Z,15.90
2023-04-07T07:15:21.819Z,15.90
2023-04-07T07:17:48.853Z,15.90
2023-04-07T07:20:16.119Z,15.90
2023-04-07T07:22:43.085Z,15.90
2023-04-07T07:25:10.327Z,15.70
2023-04-07T07:27:37.311Z,15.80
2023-04-07T07:30:06.085Z,15.70
2023-04-07T07:32:33.055Z,15.70
2023-04-07T07:35:00.092Z,15.60
2023-04-07T07:37:28.070Z,15.60
2023-04-07T07:39:56.373Z,15.70
2023-04-07T07:42:23.333Z,15.70
2023-04-07T07:44:51.039Z,15.80
2023-04-07T07:47:18.196Z,16.00
2023-04-07T07:49:45.647Z,16.10
2023-04-07T07:52:12.527Z,16.20
2023-04-07T07:54:39.514Z,16.30
2023-04-07T07:57:06.455Z,16.30
2023-04-07T07:59:33.754Z,16.30
2023-04-07T08:02:00.939Z,16.40
2023-04-07T08:04:28.009Z,16.40
2023-04-07T08:06:55.246Z,16.50
2023-04-07T08:09:22.355Z,16.30
2023-04-07T08:11:49.197Z,16.30
2023-04-07T08:14:16.528Z,16.30
2023-04-07T08:16:43.987Z,16.30
2023-04-07T08:19:11.225Z,16.40
2023-04-07T08:21:38.163Z,16.30
2023-04-07T08:24:05.684Z,16.40
2023-04-07T08:26:32.777Z,16.30
2023-04-07T08:28:59.781Z,16.30
2023-04-07T08:31:27.641Z,16.30
2023-04-07T08:33:58.091Z,16.30
2023-04-07T08:36:26.475Z,16.40
2023-04-07T08:38:56.928Z,16.40
2023-04-07T08:41:39.491Z,16.40
2023-04-07T08:44:09.352Z,16.40
2023-04-07T08:46:39.205Z,16.40
2023-04-07T08:49:10.371Z,16.50
2023-04-07T08:51:38.908Z,16.60
2023-04-07T08:54:14.063Z,16.60
2023-04-07T08:56:42.709Z,16.70
2023-04-07T08:59:12.301Z,16.80
2023-04-07T09:01:40.471Z,16.70
2023-04-07T09:04:09.541Z,16.80
2023-04-07T09:06:38.081Z,16.80
2023-04-07T09:09:08.384Z,16.90
2023-04-07T09:11:37.626Z,17.00
2023-04-07T09:14:04.702Z,17.10
2023-04-07T09:16:31.902Z,17.20
2023-04-07T09:18:59.541Z,17.10
2023-04-07T09:21:27.440Z,17.00
2023-04-07T09:23:54.923Z,17.00
2023-04-07T09:26:25.660Z,17.00
2023-04-07T09:29:00.961Z,17.00
2023-04-07T09:31:51.904Z,17.00
2023-04-07T09:34:30.128Z,17.10
2023-04-07T09:36:57.556Z,17.10
2023-04-07T09:39:27.796Z,16.90
2023-04-07T09:41:55.002Z,17.00
2023-04-07T09:44:23.118Z,17.00
2023-04-07T09:46:53.585Z,17.10
2023-04-07T09:49:21.320Z,17.20
2023-04-07T09:51:57.404Z,17.10
2023-04-07T09:54:38.249Z,17.20
2023-04-07T09:57:08.667Z,17.10
2023-04-07T09:59:40.961Z,17.10
2023-04-07T10:02:08.603Z,17.10
2023-04-07T10:04:35.697Z,17.30
2023-04-07T10:07:03.712Z,17.30
2023-04-07T10:09:31.547Z,17.30
2023-04-07T10:11:59.933Z,17.40
2023-04-07T10:14:31.788Z,17.50
2023-04-07T10:17:03.478Z,17.60
2023-04-07T10:19:33.614Z,17.80
2023-04-07T10:22:03.127Z,17.80
2023-04-07T10:24:49.644Z,17.90
2023-04-07T10:27:24.244Z,18.00
2023-04-07T10:29:52.828Z,17.90
2023-04-07T10:32:20.985Z,17.90
2023-04-07T10:34:51.052Z,17.90
2023-04-07T10:37:21.330Z,17.90
2023-04-07T10:40:21.150Z,17.90
2023-04-07T10:42:48.085Z,17.80
2023-04-07T10:45:15.037Z,17.80
2023-04-07T10:48:03.892Z,17.80
2023-04-07T10:50:30.962Z,17.80
2023-04-07T10:53:08.906Z,17.90
2023-04-07T10:55:38.125Z,17.80
2023-04-07T10:58:29.214Z,17.90
2023-04-07T11:01:08.382Z,17.90
2023-04-07T11:03:56.334Z,17.90
2023-04-07T11:06:24.851Z,18.00
2023-04-07T11:08:52.034Z,18.00
2023-04-07T11:11:39.854Z,18.10
2023-04-07T11:14:07.360Z,18.20
2023-04-07T11:16:45.044Z,18.30
2023-04-07T11:19:12.119Z,18.20
2023-04-07T11:21:39.267Z,18.20
2023-04-07T11:24:06.515Z,18.10
2023-04-07T11:26:39.342Z,18.10
2023-04-07T11:29:06.625Z,18.20
2023-04-07T11:31:34.115Z,18.20
2023-04-07T11:34:05.453Z,18.30
2023-04-07T11:36:40.991Z,18.40
2023-04-07T11:39:22.321Z,18.40
2023-04-07T11:41:50.669Z,18.30
2023-04-07T11:44:17.906Z,18.30
2023-04-07T11:46:58.272Z,18.20
2023-04-07T11:49:29.789Z,18.20
2023-04-07T11:52:07.265Z,18.20
2023-04-07T11:54:41.623Z,18.20
2023-04-07T11:57:12.101Z,18.20
2023-04-07T11:59:39.967Z,18.20
2023-04-07T12:02:08.265Z,18.30
2023-04-07T12:04:37.854Z,18.30
2023-04-07T12:07:09.660Z,18.40
2023-04-07T12:09:37.980Z,18.50
2023-04-07T12:12:07.681Z,18.50
2023-04-07T12:14:35.615Z,18.50
2023-04-07T12:17:03.821Z,18.50
2023-04-07T12:19:36.222Z,18.60
2023-04-07T12:22:04.404Z,18.70
2023-04-07T12:24:32.508Z,18.80
2023-04-07T12:26:59.873Z,18.90
2023-04-07T12:29:26.955Z,18.90
2023-04-07T12:31:53.948Z,18.90
2023-04-07T12:34:20.849Z,18.90
2023-04-07T12:36:48.362Z,18.90
2023-04-07T12:39:16.494Z,18.90
2023-04-07T12:41:45.381Z,19.00
2023-04-07T12:44:12.284Z,19.00
2023-04-07T12:46:39.282Z,19.00
2023-04-07T12:49:06.617Z,19.10
2023-04-07T12:51:33.827Z,19.10
2023-04-07T12:54:01.506Z,19.10
2023-04-07T12:56:28.863Z,19.20
2023-04-07T12:58:55.862Z,19.10
2023-04-07T13:01:22.875Z,19.20
2023-04-07T13:03:50.055Z,19.20
2023-04-07T13:06:17.688Z,19.30
2023-04-07T13:08:44.603Z,19.30
2023-04-07T13:11:11.730Z,19.40
2023-04-07T13:13:38.576Z,19.40
2023-04-07T13:16:05.727Z,19.30
2023-04-07T13:18:32.631Z,19.30
2023-04-07T13:21:30.631Z,19.20
2023-04-07T13:23:46.624Z,19.10
2023-04-07T13:26:13.575Z,18.90
2023-04-07T13:28:40.562Z,18.60
2023-04-07T13:31:07.759Z,18.50
2023-04-07T13:33:35.396Z,18.40
2023-04-07T13:36:02.378Z,18.40
2023-04-07T13:38:29.348Z,18.30
2023-04-07T13:40:56.198Z,18.20
2023-04-07T13:43:23.117Z,18.10
2023-04-07T13:45:50.298Z,18.00
2023-04-07T13:48:17.283Z,18.10
2023-04-07T13:50:44.203Z,18.20
2023-04-07T13:53:11.171Z,18.20
2023-04-07T13:55:38.710Z,18.20
2023-04-07T13:58:05.663Z,18.20
2023-04-07T14:00:33.009Z,18.10
2023-04-07T14:02:59.950Z,18.10
2023-04-07T14:05:27.064Z,18.10
2023-04-07T14:07:54.512Z,18.10
2023-04-07T14:10:21.675Z,18.10
2023-04-07T14:12:48.689Z,18.10
2023-04-07T14:15:17.719Z,18.10
2023-04-07T14:17:45.546Z,18.10
2023-04-07T14:20:12.565Z,18.20
2023-04-07T14:22:39.558Z,18.20
2023-04-07T14:25:06.906Z,18.30
2023-04-07T14:27:33.907Z,18.40
2023-04-07T14:30:01.668Z,18.40
2023-04-07T14:32:29.926Z,18.40
2023-04-07T14:34:59.300Z,18.40
2023-04-07T14:37:28.524Z,18.20
2023-04-07T14:40:01.870Z,18.20
2023-04-07T14:42:33.395Z,18.20
2023-04-07T14:45:01.899Z,18.10
2023-04-07T14:47:28.934Z,18.00
2023-04-07T14:49:55.937Z,18.00
2023-04-07T14:52:22.973Z,18.00
2023-04-07T14:54:49.798Z,18.00
2023-04-07T14:57:17.142Z,18.10
2023-04-07T14:59:44.279Z,18.20
2023-04-07T15:02:11.443Z,18.20
2023-04-07T15:04:38.850Z,18.40
2023-04-07T15:07:05.905Z,18.50
2023-04-07T15:09:32.720Z,18.60
2023-04-07T15:12:00.542Z,18.80
2023-04-07T15:14:27.809Z,19.00
2023-04-07T15:16:54.725Z,19.10
2023-04-07T15:19:21.622Z,19.10
2023-04-07T15:21:48.451Z,19.10
2023-04-07T15:24:16.414Z,19.10
2023-04-07T15:26:43.909Z,19.00
2023-04-07T15:29:11.003Z,19.10
2023-04-07T15:31:37.991Z,19.00
2023-04-07T15:34:05.667Z,19.20
2023-04-07T15:36:32.524Z,19.30
2023-04-07T15:39:04.490Z,19.30
2023-04-07T15:41:32.776Z,19.30
2023-04-07T15:44:03.602Z,19.20
2023-04-07T15:46:32.258Z,19.20
2023-04-07T15:49:00.458Z,19.10
2023-04-07T15:51:28.900Z,19.10
2023-04-07T15:53:56.073Z,19.00
2023-04-07T15:56:24.955Z,18.90
2023-04-07T15:58:52.205Z,18.90
2023-04-07T16:01:19.570Z,18.80
2023-04-07T16:03:47.546Z,18.70
2023-04-07T16:06:14.668Z,18.70
2023-04-07T16:08:41.657Z,18.70
2023-04-07T16:11:08.549Z,18.60
2023-04-07T16:13:35.476Z,18.60
2023-04-07T16:16:02.498Z,18.60
2023-04-07T16:18:30.406Z,18.60
2023-04-07T16:20:57.224Z,18.60
2023-04-07T16:23:24.486Z,18.60
2023-04-07T16:25:51.591Z,18.60
2023-04-07T16:28:18.492Z,18.50
2023-04-07T16:30:45.479Z,18.40
2023-04-07T16:33:12.954Z,18.40
2023-04-07T16:35:40.041Z,18.40
2023-04-07T16:38:07.161Z,18.50
2023-04-07T16:40:34.157Z,18.50
2023-04-07T16:43:01.256Z,18.50
2023-04-07T16:45:28.148Z,18.60
2023-04-07T16:47:55.111Z,18.50
2023-04-07T16:50:22.034Z,18.60
2023-04-07T16:52:49.174Z,18.50
2023-04-07T16:55:16.345Z,18.50
2023-04-07T16:57:43.324Z,18.40
2023-04-07T17:00:10.892Z,18.30
2023-04-07T17:02:38.215Z,18.20
2023-04-07T17:05:05.550Z,18.20
2023-04-07T17:07:32.381Z,18.10
2023-04-07T17:09:59.452Z,18.10
2023-04-07T17:12:26.561Z,18.00
2023-04-07T17:14:53.526Z,17.90
2023-04-07T17:17:20.678Z,17.90
2023-04-07T17:19:47.674Z,17.80
2023-04-07T17:22:14.694Z,17.80
2023-04-07T17:24:41.773Z,17.80
2023-04-07T17:27:08.925Z,17.80
2023-04-07T17:29:37.077Z,17.70
2023-04-07T17:32:04.131Z,17.80
2023-04-07T17:34:31.752Z,17.80
2023-04-07T17:36:58.747Z,17.80
2023-04-07T17:39:25.787Z,17.80
2023-04-07T17:41:52.831Z,17.60
2023-04-07T17:44:19.694Z,17.60
2023-04-07T17:46:46.841Z,17.50
2023-04-07T17:49:14.633Z,17.50
2023-04-07T17:51:42.580Z,17.40
2023-04-07T17:54:09.600Z,17.40
2023-04-07T17:56:38.011Z,17.40
2023-04-07T17:59:04.921Z,17.40
2023-04-07T18:01:31.956Z,17.30
2023-04-07T18:04:00.187Z,17.30
2023-04-07T18:06:28.577Z,17.20
2023-04-07T18:08:55.692Z,17.20
2023-04-07T18:11:22.958Z,17.20
2023-04-07T18:13:50.014Z,17.20
2023-04-07T18:16:22.005Z,17.20
2023-04-07T18:18:49.524Z,17.30
2023-04-07T18:21:16.678Z,17.30
2023-04-07T18:23:43.704Z,17.30
2023-04-07T18:26:11.009Z,17.30
2023-04-07T18:28:37.888Z,17.30
2023-04-07T18:31:07.946Z,17.30
2023-04-07T18:33:35.872Z,17.20
2023-04-07T18:36:07.987Z,17.20
2023-04-07T18:38:36.486Z,17.20
2023-04-07T18:41:06.678Z,17.20
2023-04-07T18:43:33.568Z,17.20
2023-04-07T18:46:00.465Z,17.20
2023-04-07T18:48:27.461Z,17.20
2023-04-07T18:50:55.727Z,17.20
2023-04-07T18:53:23.950Z,17.20
2023-04-07T18:55:52.096Z,17.10
2023-04-07T18:58:20.133Z,17.00
2023-04-07T19:00:49.904Z,17.00
2023-04-07T19:03:17.524Z,16.90
2023-04-07T19:05:47.673Z,17.00
2023-04-07T19:08:16.025Z,16.90
2023-04-07T19:10:43.682Z,17.00
2023-04-07T19:13:10.716Z,17.00
2023-04-07T19:15:39.419Z,17.00
2023-04-07T19:18:08.316Z,17.00
2023-04-07T19:20:35.513Z,17.00
2023-04-07T19:23:02.668Z,17.10
2023-04-07T19:25:31.198Z,17.10
2023-04-07T19:27:58.853Z,17.00
2023-04-07T19:30:25.937Z,17.10
2023-04-07T19:32:53.100Z,17.10
2023-04-07T19:35:20.246Z,17.00
2023-04-07T19:37:48.296Z,16.90
2023-04-07T19:40:16.164Z,16.90
2023-04-07T19:42:43.105Z,16.90
2023-04-07T19:45:10.495Z,16.90
2023-04-07T19:47:38.603Z,16.90
2023-04-07T19:50:06.324Z,16.80
2023-04-07T19:52:33.447Z,16.80
2023-04-07T19:55:01.614Z,16.70
2023-04-07T19:57:31.197Z,16.70
2023-04-07T19:59:58.480Z,16.60
2023-04-07T20:02:25.725Z,16.60
2023-04-07T20:04:53.635Z,16.70
2023-04-07T20:07:20.721Z,16.70
2023-04-07T20:09:47.701Z,16.70
2023-04-07T20:12:14.927Z,16.70
2023-04-07T20:14:41.849Z,16.70
2023-04-07T20:17:08.977Z,16.70
2023-04-07T20:19:36.512Z,16.70
2023-04-07T20:22:04.601Z,16.70
2023-04-07T20:24:31.603Z,16.70
2023-04-07T20:26:58.608Z,16.70
2023-04-07T20:29:25.622Z,16.70
2023-04-07T20:31:52.462Z,16.70
2023-04-07T20:34:19.446Z,16.70
2023-04-07T20:36:49.001Z,16.70
2023-04-07T20:39:16.571Z,16.70
2023-04-07T20:41:45.214Z,16.80
2023-04-07T20:44:12.404Z,16.80
2023-04-07T20:46:39.419Z,16.80
2023-04-07T20:49:10.552Z,16.80
2023-04-07T20:51:37.449Z,16.90
2023-04-07T20:54:05.002Z,16.80
2023-04-07T20:56:32.167Z,16.80
2023-04-07T20:58:59.114Z,16.70
2023-04-07T21:01:26.188Z,16.70
2023-04-07T21:03:54.027Z,16.70
2023-04-07T21:06:21.540Z,16.70
2023-04-07T21:08:48.783Z,16.70
2023-04-07T21:11:16.283Z,16.70
2023-04-07T21:13:43.302Z,16.70
2023-04-07T21:16:11.147Z,16.70
2023-04-07T21:18:38.904Z,16.70
2023-04-07T21:21:08.289Z,16.70
2023-04-07T21:23:35.476Z,16.70
2023-04-07T21:26:03.369Z,16.70
2023-04-07T21:28:30.579Z,16.70
2023-04-07T21:30:57.670Z,16.70
2023-04-07T21:33:24.674Z,16.70
2023-04-07T21:35:52.268Z,16.60
2023-04-07T21:38:19.224Z,16.70
2023-04-07T21:40:46.144Z,16.60
2023-04-07T21:43:13.286Z,16.70
2023-04-07T21:45:40.550Z,16.60
2023-04-07T21:48:07.967Z,16.60
2023-04-07T21:50:35.126Z,16.60
2023-04-07T21:53:02.418Z,16.60
2023-04-07T21:55:29.492Z,16.70
2023-04-07T21:57:56.587Z,16.70
2023-04-07T22:00:23.567Z,16.60
2023-04-07T22:02:51.592Z,16.60
2023-04-07T22:05:18.974Z,16.60
2023-04-07T22:07:46.844Z,16.60
2023-04-07T22:10:14.021Z,16.50
2023-04-07T22:12:41.416Z,16.50
2023-04-07T22:15:09.485Z,16.50
2023-04-07T22:17:36.616Z,16.50
2023-04-07T22:20:05.145Z,16.50
2023-04-07T22:22:32.074Z,16.50
2023-04-07T22:24:59.123Z,16.50
2023-04-07T22:27:27.713Z,16.50
2023-04-07T22:29:54.938Z,16.50
2023-04-07T22:32:21.948Z,16.50
2023-04-07T22:34:48.920Z,16.60
2023-04-07T22:37:15.987Z,16.60
2023-04-07T22:39:45.651Z,16.50
2023-04-07T22:42:12.595Z,16.50
2023-04-07T22:44:39.471Z,16.50
2023-04-07T22:47:06.516Z,16.40
2023-04-07T22:49:33.652Z,16.40
2023-04-07T22:52:00.750Z,16.50
2023-04-07T22:54:27.717Z,16.50
2023-04-07T22:56:54.636Z,16.50
2023-04-07T22:59:21.588Z,16.50
2023-04-07T23:01:48.604Z,16.50
2023-04-07T23:04:15.724Z,16.50
2023-04-07T23:06:43.551Z,16.50
2023-04-07T23:09:11.730Z,16.50
2023-04-07T23:11:38.704Z,16.50
2023-04-07T23:14:06.275Z,16.50
2023-04-07T23:16:34.060Z,16.40
2023-04-07T23:19:01.450Z,16.40
2023-04-07T23:21:31.324Z,16.40
2023-04-07T23:23:58.866Z,16.40
2023-04-07T23:26:26.919Z,16.40
2023-04-07T23:28:53.883Z,16.40
2023-04-07T23:31:21.281Z,16.40
2023-04-07T23:33:48.444Z,16.30
2023-04-07T23:36:16.144Z,16.30
2023-04-07T23:38:43.143Z,16.30
2023-04-07T23:41:10.136Z,16.30
2023-04-07T23:43:37.175Z,16.30
2023-04-07T23:46:04.162Z,16.30
2023-04-07T23:48:31.844Z,16.30
2023-04-07T23:51:00.186Z,16.30
2023-04-07T23:53:27.451Z,16.40
2023-04-07T23:55:54.519Z,16.40
2023-04-07T23:58:21.581Z,16.40
